Hlavní strana
METAR-TAF:

METAR-TAF

Letiště :

Mezinárodní letiště Káhira

Káhira, Egypt

zeměpisná šířka: 30-08N, zeměpisná délka: 031-24E, výška: 64 m

Aktuální stav počasí

Zpráva byla vytvořena před 25 minutami, v 13:00 UTC
Západoseverozápadní vítr 8 kt
Teplota 28°C
Vlhkost vzduchu 37%
Tlak 1013 hPa
Viditelnost 10 km a více
Skoro jasno ve výšce 2500 ft

METAR: HECA 141300Z 30008KT 9999 FEW025 28/12 Q1013 NOSIG

Čas: 15:25 (13:25 UTC)

Předpověď počasí

Zpráva byla vytvořena před 2 hodinami a 25 minutami, v 11:00 UTC
Předpověď platná od 14 v 12 UTC do 15 v 18 UTC
Severní vítr 9 kt
Viditelnost 10 km a více
Žádná oblačnost pod 1500 m, nevyskytují se cumulonimby.
Dočasný
od 15 v 00 UTC do 15 v 08 UTC
vítr z různých směrů 3 kt
Viditelnost: 4000 m
kouřmo,

TAF: HECA 141100Z 1412/1518 35009KT CAVOK TEMPO 1500/1508 VRB03KT 4000 BR NSC

Stav a předpovědi počasí z více než 4 000 letišť (zprávy METAR a TAF).

Červené a žluté tečky na mapě představují dostupné meteorologické stanice.

Když kurzor umístíte na tečku, zobrazí se název stanice.

Pak kliknutím zobrazíte stav a předpověď počasí.

Chcete-li změnit mapu, kliknutím na zelené tlačítko se znaménkem +mapu přiblížíte, kliknutím na zelené tlačítko se znaménkem – mapu oddálíte a kliknutím na zelené šipky přejdete na sousední mapy.


METAR-TAF: